<?xml version="1.0" encoding="UTF-8"?>
<gpx xmlns="http://www.topografix.com/GPX/1/1" xmlns:xsi="http://www.w3.org/2001/XMLSchema-instance" version="1.1" xsi:schemaLocation="http://www.topografix.com/GPX/1/1 http://www.topografix.com/GPX/1/1/gpx.xsd">
  <metadata>
    <name>ATW Odyssey at Box End 2026 - Aquabike Sprint</name>
  </metadata>
  <trk>
    <name>ATW Odyssey at Box End 2026 - Aquabike Sprint</name>
    <trkseg>
      <trkpt lat="52.121813" lon="-0.523228">
        <ele>31.204472</ele>
        <time>2026-05-24T07:15:00.000Z</time>
      </trkpt>
      <trkpt lat="52.121816" lon="-0.523222">
        <ele>31.204484</ele>
        <time>2026-05-24T07:15:00.000Z</time>
      </trkpt>
      <trkpt lat="52.121455" lon="-0.523161">
        <ele>31.204481</ele>
        <time>2026-05-24T07:15:04.000Z</time>
      </trkpt>
      <trkpt lat="52.121106" lon="-0.523032">
        <ele>31.204476</ele>
        <time>2026-05-24T07:15:08.000Z</time>
      </trkpt>
      <trkpt lat="52.120355" lon="-0.522622">
        <ele>31.74745</ele>
        <time>2026-05-24T07:15:17.000Z</time>
      </trkpt>
      <trkpt lat="52.120041" lon="-0.522329">
        <ele>32.053974</ele>
        <time>2026-05-24T07:15:21.000Z</time>
      </trkpt>
      <trkpt lat="52.119094" lon="-0.5211">
        <ele>32.342072</ele>
        <time>2026-05-24T07:15:34.000Z</time>
      </trkpt>
      <trkpt lat="52.118573" lon="-0.520418">
        <ele>31.607695</ele>
        <time>2026-05-24T07:15:41.000Z</time>
      </trkpt>
      <trkpt lat="52.117989" lon="-0.519605">
        <ele>30.787098</ele>
        <time>2026-05-24T07:15:50.000Z</time>
      </trkpt>
      <trkpt lat="52.117393" lon="-0.518728">
        <ele>30.553172</ele>
        <time>2026-05-24T07:15:59.000Z</time>
      </trkpt>
      <trkpt lat="52.11734" lon="-0.51864">
        <ele>30.53146</ele>
        <time>2026-05-24T07:16:00.000Z</time>
      </trkpt>
      <trkpt lat="52.1174" lon="-0.518497">
        <ele>30.500308</ele>
        <time>2026-05-24T07:16:01.000Z</time>
      </trkpt>
      <trkpt lat="52.1174" lon="-0.518313">
        <ele>30.469078</ele>
        <time>2026-05-24T07:16:02.000Z</time>
      </trkpt>
      <trkpt lat="52.117392" lon="-0.518241">
        <ele>30.453259</ele>
        <time>2026-05-24T07:16:02.000Z</time>
      </trkpt>
      <trkpt lat="52.117296" lon="-0.51811">
        <ele>30.419889</ele>
        <time>2026-05-24T07:16:03.000Z</time>
      </trkpt>
      <trkpt lat="52.117169" lon="-0.518102">
        <ele>30.386322</ele>
        <time>2026-05-24T07:16:04.000Z</time>
      </trkpt>
      <trkpt lat="52.117116" lon="-0.518136">
        <ele>30.36933</ele>
        <time>2026-05-24T07:16:05.000Z</time>
      </trkpt>
      <trkpt lat="52.117085" lon="-0.518214">
        <ele>30.351161</ele>
        <time>2026-05-24T07:16:06.000Z</time>
      </trkpt>
      <trkpt lat="52.117034" lon="-0.518408">
        <ele>30.315121</ele>
        <time>2026-05-24T07:16:07.000Z</time>
      </trkpt>
      <trkpt lat="52.117053" lon="-0.518495">
        <ele>30.296971</ele>
        <time>2026-05-24T07:16:08.000Z</time>
      </trkpt>
      <trkpt lat="52.117069" lon="-0.518589">
        <ele>30.279575</ele>
        <time>2026-05-24T07:16:09.000Z</time>
      </trkpt>
      <trkpt lat="52.117166" lon="-0.518696">
        <ele>30.347119</ele>
        <time>2026-05-24T07:16:10.000Z</time>
      </trkpt>
      <trkpt lat="52.117297" lon="-0.518687">
        <ele>30.433805</ele>
        <time>2026-05-24T07:16:11.000Z</time>
      </trkpt>
      <trkpt lat="52.117352" lon="-0.518631">
        <ele>30.477753</ele>
        <time>2026-05-24T07:16:12.000Z</time>
      </trkpt>
      <trkpt lat="52.117381" lon="-0.51873">
        <ele>30.532422</ele>
        <time>2026-05-24T07:16:13.000Z</time>
      </trkpt>
      <trkpt lat="52.118002" lon="-0.519613">
        <ele>31.121733</ele>
        <time>2026-05-24T07:16:22.000Z</time>
      </trkpt>
      <trkpt lat="52.11858" lon="-0.520423">
        <ele>31.662628</ele>
        <time>2026-05-24T07:16:30.000Z</time>
      </trkpt>
      <trkpt lat="52.119096" lon="-0.521097">
        <ele>32.068591</ele>
        <time>2026-05-24T07:16:37.000Z</time>
      </trkpt>
      <trkpt lat="52.120039" lon="-0.522339">
        <ele>32.446355</ele>
        <time>2026-05-24T07:16:50.000Z</time>
      </trkpt>
      <trkpt lat="52.120351" lon="-0.522608">
        <ele>32.063443</ele>
        <time>2026-05-24T07:16:54.000Z</time>
      </trkpt>
      <trkpt lat="52.121108" lon="-0.523045">
        <ele>31.196775</ele>
        <time>2026-05-24T07:17:03.000Z</time>
      </trkpt>
      <trkpt lat="52.121448" lon="-0.523176">
        <ele>30.805576</ele>
        <time>2026-05-24T07:17:07.000Z</time>
      </trkpt>
      <trkpt lat="52.121815" lon="-0.523237">
        <ele>30.922653</ele>
        <time>2026-05-24T07:17:11.000Z</time>
      </trkpt>
      <trkpt lat="52.122097" lon="-0.523318">
        <ele>31.127617</ele>
        <time>2026-05-24T07:17:14.000Z</time>
      </trkpt>
      <trkpt lat="52.123065" lon="-0.523768">
        <ele>31.829434</ele>
        <time>2026-05-24T07:17:25.000Z</time>
      </trkpt>
      <trkpt lat="52.123496" lon="-0.523912">
        <ele>32.154017</ele>
        <time>2026-05-24T07:17:30.000Z</time>
      </trkpt>
      <trkpt lat="52.12387" lon="-0.524065">
        <ele>32.433054</ele>
        <time>2026-05-24T07:17:34.000Z</time>
      </trkpt>
      <trkpt lat="52.124295" lon="-0.52433">
        <ele>32.764134</ele>
        <time>2026-05-24T07:17:39.000Z</time>
      </trkpt>
      <trkpt lat="52.125341" lon="-0.525115">
        <ele>33.234663</ele>
        <time>2026-05-24T07:17:52.000Z</time>
      </trkpt>
      <trkpt lat="52.126437" lon="-0.525751">
        <ele>33.069913</ele>
        <time>2026-05-24T07:18:05.000Z</time>
      </trkpt>
      <trkpt lat="52.127469" lon="-0.526369">
        <ele>33.144499</ele>
        <time>2026-05-24T07:18:17.000Z</time>
      </trkpt>
      <trkpt lat="52.129226" lon="-0.527098">
        <ele>34.291465</ele>
        <time>2026-05-24T07:18:37.000Z</time>
      </trkpt>
      <trkpt lat="52.130017" lon="-0.527249">
        <ele>35.218197</ele>
        <time>2026-05-24T07:18:46.000Z</time>
      </trkpt>
      <trkpt lat="52.130503" lon="-0.52744">
        <ele>36.476998</ele>
        <time>2026-05-24T07:18:52.000Z</time>
      </trkpt>
      <trkpt lat="52.130714" lon="-0.527546">
        <ele>37.107421</ele>
        <time>2026-05-24T07:18:54.000Z</time>
      </trkpt>
      <trkpt lat="52.130939" lon="-0.527761">
        <ele>37.848069</ele>
        <time>2026-05-24T07:18:57.000Z</time>
      </trkpt>
      <trkpt lat="52.131043" lon="-0.527951">
        <ele>38.292632</ele>
        <time>2026-05-24T07:18:59.000Z</time>
      </trkpt>
      <trkpt lat="52.131127" lon="-0.528234">
        <ele>38.869888</ele>
        <time>2026-05-24T07:19:01.000Z</time>
      </trkpt>
      <trkpt lat="52.131294" lon="-0.528586">
        <ele>39.634831</ele>
        <time>2026-05-24T07:19:04.000Z</time>
      </trkpt>
      <trkpt lat="52.131392" lon="-0.528741">
        <ele>40.02807</ele>
        <time>2026-05-24T07:19:06.000Z</time>
      </trkpt>
      <trkpt lat="52.131666" lon="-0.528997">
        <ele>40.770004</ele>
        <time>2026-05-24T07:19:10.000Z</time>
      </trkpt>
      <trkpt lat="52.131904" lon="-0.529154">
        <ele>41.201881</ele>
        <time>2026-05-24T07:19:13.000Z</time>
      </trkpt>
      <trkpt lat="52.132157" lon="-0.529263">
        <ele>41.63449</ele>
        <time>2026-05-24T07:19:16.000Z</time>
      </trkpt>
      <trkpt lat="52.132405" lon="-0.529247">
        <ele>42.070916</ele>
        <time>2026-05-24T07:19:19.000Z</time>
      </trkpt>
      <trkpt lat="52.132849" lon="-0.52898">
        <ele>42.869087</ele>
        <time>2026-05-24T07:19:24.000Z</time>
      </trkpt>
      <trkpt lat="52.133013" lon="-0.528873">
        <ele>43.19904</ele>
        <time>2026-05-24T07:19:26.000Z</time>
      </trkpt>
      <trkpt lat="52.133296" lon="-0.528723">
        <ele>43.48006</ele>
        <time>2026-05-24T07:19:29.000Z</time>
      </trkpt>
      <trkpt lat="52.133475" lon="-0.528658">
        <ele>43.17845</ele>
        <time>2026-05-24T07:19:31.000Z</time>
      </trkpt>
      <trkpt lat="52.133815" lon="-0.528662">
        <ele>42.589376</ele>
        <time>2026-05-24T07:19:35.000Z</time>
      </trkpt>
      <trkpt lat="52.134272" lon="-0.528759">
        <ele>41.813657</ele>
        <time>2026-05-24T07:19:40.000Z</time>
      </trkpt>
      <trkpt lat="52.134564" lon="-0.528804">
        <ele>41.340382</ele>
        <time>2026-05-24T07:19:43.000Z</time>
      </trkpt>
      <trkpt lat="52.134749" lon="-0.528801">
        <ele>41.022613</ele>
        <time>2026-05-24T07:19:45.000Z</time>
      </trkpt>
      <trkpt lat="52.135271" lon="-0.528627">
        <ele>40.347374</ele>
        <time>2026-05-24T07:19:51.000Z</time>
      </trkpt>
      <trkpt lat="52.135711" lon="-0.52855">
        <ele>40.01073</ele>
        <time>2026-05-24T07:19:56.000Z</time>
      </trkpt>
      <trkpt lat="52.137443" lon="-0.52852">
        <ele>38.022833</ele>
        <time>2026-05-24T07:20:15.000Z</time>
      </trkpt>
      <trkpt lat="52.137585" lon="-0.528482">
        <ele>37.77063</ele>
        <time>2026-05-24T07:20:17.000Z</time>
      </trkpt>
      <trkpt lat="52.137879" lon="-0.528433">
        <ele>37.253349</ele>
        <time>2026-05-24T07:20:20.000Z</time>
      </trkpt>
      <trkpt lat="52.138182" lon="-0.528362">
        <ele>36.739674</ele>
        <time>2026-05-24T07:20:23.000Z</time>
      </trkpt>
      <trkpt lat="52.138335" lon="-0.528273">
        <ele>36.4339</ele>
        <time>2026-05-24T07:20:25.000Z</time>
      </trkpt>
      <trkpt lat="52.138541" lon="-0.528032">
        <ele>35.982259</ele>
        <time>2026-05-24T07:20:28.000Z</time>
      </trkpt>
      <trkpt lat="52.138824" lon="-0.527524">
        <ele>35.149816</ele>
        <time>2026-05-24T07:20:33.000Z</time>
      </trkpt>
      <trkpt lat="52.138999" lon="-0.52725">
        <ele>34.676635</ele>
        <time>2026-05-24T07:20:36.000Z</time>
      </trkpt>
      <trkpt lat="52.139112" lon="-0.527147">
        <ele>34.39977</ele>
        <time>2026-05-24T07:20:37.000Z</time>
      </trkpt>
      <trkpt lat="52.139292" lon="-0.527036">
        <ele>34.016753</ele>
        <time>2026-05-24T07:20:39.000Z</time>
      </trkpt>
      <trkpt lat="52.139635" lon="-0.526935">
        <ele>33.324649</ele>
        <time>2026-05-24T07:20:43.000Z</time>
      </trkpt>
      <trkpt lat="52.13987" lon="-0.526943">
        <ele>32.828724</ele>
        <time>2026-05-24T07:20:46.000Z</time>
      </trkpt>
      <trkpt lat="52.140598" lon="-0.527173">
        <ele>32.681307</ele>
        <time>2026-05-24T07:20:54.000Z</time>
      </trkpt>
      <trkpt lat="52.14275" lon="-0.527572">
        <ele>34.241418</ele>
        <time>2026-05-24T07:21:18.000Z</time>
      </trkpt>
      <trkpt lat="52.143046" lon="-0.527636">
        <ele>34.505561</ele>
        <time>2026-05-24T07:21:21.000Z</time>
      </trkpt>
      <trkpt lat="52.143115" lon="-0.52764">
        <ele>34.57739</ele>
        <time>2026-05-24T07:21:22.000Z</time>
      </trkpt>
      <trkpt lat="52.14373" lon="-0.527778">
        <ele>35.123138</ele>
        <time>2026-05-24T07:21:29.000Z</time>
      </trkpt>
      <trkpt lat="52.143845" lon="-0.527811">
        <ele>35.192806</ele>
        <time>2026-05-24T07:21:30.000Z</time>
      </trkpt>
      <trkpt lat="52.144449" lon="-0.527921">
        <ele>35.6039</ele>
        <time>2026-05-24T07:21:37.000Z</time>
      </trkpt>
      <trkpt lat="52.144545" lon="-0.527895">
        <ele>35.666936</ele>
        <time>2026-05-24T07:21:38.000Z</time>
      </trkpt>
      <trkpt lat="52.144667" lon="-0.527827">
        <ele>35.75437</ele>
        <time>2026-05-24T07:21:39.000Z</time>
      </trkpt>
      <trkpt lat="52.144724" lon="-0.527762">
        <ele>35.799409</ele>
        <time>2026-05-24T07:21:40.000Z</time>
      </trkpt>
      <trkpt lat="52.144859" lon="-0.527696">
        <ele>35.894479</ele>
        <time>2026-05-24T07:21:42.000Z</time>
      </trkpt>
      <trkpt lat="52.144987" lon="-0.527707">
        <ele>35.974104</ele>
        <time>2026-05-24T07:21:43.000Z</time>
      </trkpt>
      <trkpt lat="52.145052" lon="-0.528364">
        <ele>36.244564</ele>
        <time>2026-05-24T07:21:48.000Z</time>
      </trkpt>
      <trkpt lat="52.145057" lon="-0.528842">
        <ele>36.515177</ele>
        <time>2026-05-24T07:21:51.000Z</time>
      </trkpt>
      <trkpt lat="52.145046" lon="-0.529078">
        <ele>36.659356</ele>
        <time>2026-05-24T07:21:53.000Z</time>
      </trkpt>
      <trkpt lat="52.144949" lon="-0.529917">
        <ele>37.15498</ele>
        <time>2026-05-24T07:21:59.000Z</time>
      </trkpt>
      <trkpt lat="52.144856" lon="-0.530409">
        <ele>37.456425</ele>
        <time>2026-05-24T07:22:03.000Z</time>
      </trkpt>
      <trkpt lat="52.144691" lon="-0.530949">
        <ele>37.810937</ele>
        <time>2026-05-24T07:22:07.000Z</time>
      </trkpt>
      <trkpt lat="52.144456" lon="-0.531803">
        <ele>38.292082</ele>
        <time>2026-05-24T07:22:13.000Z</time>
      </trkpt>
      <trkpt lat="52.144343" lon="-0.532331">
        <ele>38.566315</ele>
        <time>2026-05-24T07:22:17.000Z</time>
      </trkpt>
      <trkpt lat="52.144254" lon="-0.532982">
        <ele>38.887656</ele>
        <time>2026-05-24T07:22:22.000Z</time>
      </trkpt>
      <trkpt lat="52.14405" lon="-0.535051">
        <ele>39.573906</ele>
        <time>2026-05-24T07:22:36.000Z</time>
      </trkpt>
      <trkpt lat="52.143991" lon="-0.5355">
        <ele>39.65383</ele>
        <time>2026-05-24T07:22:39.000Z</time>
      </trkpt>
      <trkpt lat="52.144001" lon="-0.535709">
        <ele>39.69024</ele>
        <time>2026-05-24T07:22:40.000Z</time>
      </trkpt>
      <trkpt lat="52.144039" lon="-0.535866">
        <ele>39.719026</ele>
        <time>2026-05-24T07:22:41.000Z</time>
      </trkpt>
      <trkpt lat="52.143896" lon="-0.53597">
        <ele>39.763691</ele>
        <time>2026-05-24T07:22:43.000Z</time>
      </trkpt>
      <trkpt lat="52.14377" lon="-0.536598">
        <ele>39.877256</ele>
        <time>2026-05-24T07:22:48.000Z</time>
      </trkpt>
      <trkpt lat="52.143637" lon="-0.537096">
        <ele>39.690419</ele>
        <time>2026-05-24T07:22:52.000Z</time>
      </trkpt>
      <trkpt lat="52.14349" lon="-0.537428">
        <ele>39.478405</ele>
        <time>2026-05-24T07:22:55.000Z</time>
      </trkpt>
      <trkpt lat="52.142966" lon="-0.538222">
        <ele>38.87846</ele>
        <time>2026-05-24T07:23:03.000Z</time>
      </trkpt>
      <trkpt lat="52.142565" lon="-0.538878">
        <ele>38.384788</ele>
        <time>2026-05-24T07:23:09.000Z</time>
      </trkpt>
      <trkpt lat="52.142363" lon="-0.539337">
        <ele>38.138666</ele>
        <time>2026-05-24T07:23:13.000Z</time>
      </trkpt>
      <trkpt lat="52.142252" lon="-0.539707">
        <ele>37.955303</ele>
        <time>2026-05-24T07:23:16.000Z</time>
      </trkpt>
      <trkpt lat="52.142174" lon="-0.539992">
        <ele>37.8135</ele>
        <time>2026-05-24T07:23:18.000Z</time>
      </trkpt>
      <trkpt lat="52.142107" lon="-0.540295">
        <ele>37.666078</ele>
        <time>2026-05-24T07:23:20.000Z</time>
      </trkpt>
      <trkpt lat="52.142071" lon="-0.540399">
        <ele>37.612551</ele>
        <time>2026-05-24T07:23:21.000Z</time>
      </trkpt>
      <trkpt lat="52.141997" lon="-0.540721">
        <ele>37.460129</ele>
        <time>2026-05-24T07:23:23.000Z</time>
      </trkpt>
      <trkpt lat="52.141935" lon="-0.540905">
        <ele>37.366729</ele>
        <time>2026-05-24T07:23:24.000Z</time>
      </trkpt>
      <trkpt lat="52.141803" lon="-0.541378">
        <ele>37.129534</ele>
        <time>2026-05-24T07:23:28.000Z</time>
      </trkpt>
      <trkpt lat="52.141366" lon="-0.542604">
        <ele>38.404388</ele>
        <time>2026-05-24T07:23:38.000Z</time>
      </trkpt>
      <trkpt lat="52.140902" lon="-0.544533">
        <ele>40.641806</ele>
        <time>2026-05-24T07:23:52.000Z</time>
      </trkpt>
      <trkpt lat="52.140815" lon="-0.544993">
        <ele>41.215355</ele>
        <time>2026-05-24T07:23:55.000Z</time>
      </trkpt>
      <trkpt lat="52.140766" lon="-0.544985">
        <ele>41.31979</ele>
        <time>2026-05-24T07:23:56.000Z</time>
      </trkpt>
      <trkpt lat="52.140682" lon="-0.545077">
        <ele>41.527473</ele>
        <time>2026-05-24T07:23:57.000Z</time>
      </trkpt>
      <trkpt lat="52.140673" lon="-0.545178">
        <ele>41.647361</ele>
        <time>2026-05-24T07:23:58.000Z</time>
      </trkpt>
      <trkpt lat="52.140685" lon="-0.545281">
        <ele>41.784297</ele>
        <time>2026-05-24T07:23:59.000Z</time>
      </trkpt>
      <trkpt lat="52.140759" lon="-0.545345">
        <ele>41.925254</ele>
        <time>2026-05-24T07:24:00.000Z</time>
      </trkpt>
      <trkpt lat="52.140564" lon="-0.546522">
        <ele>43.399002</ele>
        <time>2026-05-24T07:24:08.000Z</time>
      </trkpt>
      <trkpt lat="52.140453" lon="-0.547009">
        <ele>43.7624</ele>
        <time>2026-05-24T07:24:12.000Z</time>
      </trkpt>
      <trkpt lat="52.140368" lon="-0.547309">
        <ele>43.875571</ele>
        <time>2026-05-24T07:24:14.000Z</time>
      </trkpt>
      <trkpt lat="52.140029" lon="-0.548215">
        <ele>44.219055</ele>
        <time>2026-05-24T07:24:21.000Z</time>
      </trkpt>
      <trkpt lat="52.139718" lon="-0.548847">
        <ele>44.480726</ele>
        <time>2026-05-24T07:24:27.000Z</time>
      </trkpt>
      <trkpt lat="52.13945" lon="-0.549341">
        <ele>44.53636</ele>
        <time>2026-05-24T07:24:31.000Z</time>
      </trkpt>
      <trkpt lat="52.139173" lon="-0.549762">
        <ele>44.273206</ele>
        <time>2026-05-24T07:24:35.000Z</time>
      </trkpt>
      <trkpt lat="52.13918" lon="-0.549774">
        <ele>44.272381</ele>
        <time>2026-05-24T07:24:35.000Z</time>
      </trkpt>
      <trkpt lat="52.137409" lon="-0.552318">
        <ele>42.764611</ele>
        <time>2026-05-24T07:25:01.000Z</time>
      </trkpt>
      <trkpt lat="52.137114" lon="-0.552671">
        <ele>42.559667</ele>
        <time>2026-05-24T07:25:05.000Z</time>
      </trkpt>
      <trkpt lat="52.1352" lon="-0.555136">
        <ele>42.108095</ele>
        <time>2026-05-24T07:25:32.000Z</time>
      </trkpt>
      <trkpt lat="52.134513" lon="-0.556033">
        <ele>42.35987</ele>
        <time>2026-05-24T07:25:42.000Z</time>
      </trkpt>
      <trkpt lat="52.132595" lon="-0.558266">
        <ele>43.225688</ele>
        <time>2026-05-24T07:26:08.000Z</time>
      </trkpt>
      <trkpt lat="52.130722" lon="-0.560385">
        <ele>44.562737</ele>
        <time>2026-05-24T07:26:33.000Z</time>
      </trkpt>
      <trkpt lat="52.130227" lon="-0.560969">
        <ele>45.216429</ele>
        <time>2026-05-24T07:26:40.000Z</time>
      </trkpt>
      <trkpt lat="52.129889" lon="-0.561458">
        <ele>45.695812</ele>
        <time>2026-05-24T07:26:45.000Z</time>
      </trkpt>
      <trkpt lat="52.129786" lon="-0.561591">
        <ele>45.822492</ele>
        <time>2026-05-24T07:26:46.000Z</time>
      </trkpt>
      <trkpt lat="52.129473" lon="-0.562112">
        <ele>46.599392</ele>
        <time>2026-05-24T07:26:51.000Z</time>
      </trkpt>
      <trkpt lat="52.129091" lon="-0.562884">
        <ele>47.984791</ele>
        <time>2026-05-24T07:26:58.000Z</time>
      </trkpt>
      <trkpt lat="52.128835" lon="-0.563557">
        <ele>49.102308</ele>
        <time>2026-05-24T07:27:03.000Z</time>
      </trkpt>
      <trkpt lat="52.128733" lon="-0.563808">
        <ele>49.534563</ele>
        <time>2026-05-24T07:27:05.000Z</time>
      </trkpt>
      <trkpt lat="52.12849" lon="-0.564588">
        <ele>51.015721</ele>
        <time>2026-05-24T07:27:11.000Z</time>
      </trkpt>
      <trkpt lat="52.127617" lon="-0.567602">
        <ele>57.499482</ele>
        <time>2026-05-24T07:27:34.000Z</time>
      </trkpt>
      <trkpt lat="52.12753" lon="-0.567909">
        <ele>58.085566</ele>
        <time>2026-05-24T07:27:36.000Z</time>
      </trkpt>
      <trkpt lat="52.126951" lon="-0.569858">
        <ele>61.606861</ele>
        <time>2026-05-24T07:27:51.000Z</time>
      </trkpt>
      <trkpt lat="52.125729" lon="-0.573678">
        <ele>65.002676</ele>
        <time>2026-05-24T07:28:20.000Z</time>
      </trkpt>
      <trkpt lat="52.125605" lon="-0.574075">
        <ele>65.118027</ele>
        <time>2026-05-24T07:28:23.000Z</time>
      </trkpt>
      <trkpt lat="52.125495" lon="-0.574421">
        <ele>65.220709</ele>
        <time>2026-05-24T07:28:26.000Z</time>
      </trkpt>
      <trkpt lat="52.122047" lon="-0.570453">
        <ele>53.849962</ele>
        <time>2026-05-24T07:29:13.000Z</time>
      </trkpt>
      <trkpt lat="52.121808" lon="-0.569951">
        <ele>53.288115</ele>
        <time>2026-05-24T07:29:17.000Z</time>
      </trkpt>
      <trkpt lat="52.121615" lon="-0.569469">
        <ele>52.750717</ele>
        <time>2026-05-24T07:29:21.000Z</time>
      </trkpt>
      <trkpt lat="52.121447" lon="-0.569061">
        <ele>52.316783</ele>
        <time>2026-05-24T07:29:24.000Z</time>
      </trkpt>
      <trkpt lat="52.121244" lon="-0.568565">
        <ele>51.928866</ele>
        <time>2026-05-24T07:29:28.000Z</time>
      </trkpt>
      <trkpt lat="52.120311" lon="-0.566003">
        <ele>56.353312</ele>
        <time>2026-05-24T07:29:48.000Z</time>
      </trkpt>
      <trkpt lat="52.119284" lon="-0.56337">
        <ele>62.519283</ele>
        <time>2026-05-24T07:30:09.000Z</time>
      </trkpt>
      <trkpt lat="52.119065" lon="-0.562893">
        <ele>61.817146</ele>
        <time>2026-05-24T07:30:13.000Z</time>
      </trkpt>
      <trkpt lat="52.118463" lon="-0.561699">
        <ele>60.038806</ele>
        <time>2026-05-24T07:30:24.000Z</time>
      </trkpt>
      <trkpt lat="52.117094" lon="-0.558494">
        <ele>50.834145</ele>
        <time>2026-05-24T07:30:51.000Z</time>
      </trkpt>
      <trkpt lat="52.116808" lon="-0.557949">
        <ele>49.80559</ele>
        <time>2026-05-24T07:30:56.000Z</time>
      </trkpt>
      <trkpt lat="52.115774" lon="-0.554809">
        <ele>46.185757</ele>
        <time>2026-05-24T07:31:20.000Z</time>
      </trkpt>
      <trkpt lat="52.115706" lon="-0.554559">
        <ele>46.028483</ele>
        <time>2026-05-24T07:31:22.000Z</time>
      </trkpt>
      <trkpt lat="52.115729" lon="-0.554423">
        <ele>45.946314</ele>
        <time>2026-05-24T07:31:23.000Z</time>
      </trkpt>
      <trkpt lat="52.115753" lon="-0.554294">
        <ele>45.860034</ele>
        <time>2026-05-24T07:31:24.000Z</time>
      </trkpt>
      <trkpt lat="52.116807" lon="-0.553097">
        <ele>44.963534</ele>
        <time>2026-05-24T07:31:38.000Z</time>
      </trkpt>
      <trkpt lat="52.117135" lon="-0.552664">
        <ele>44.713751</ele>
        <time>2026-05-24T07:31:43.000Z</time>
      </trkpt>
      <trkpt lat="52.11865" lon="-0.550307">
        <ele>42.958019</ele>
        <time>2026-05-24T07:32:06.000Z</time>
      </trkpt>
      <trkpt lat="52.119476" lon="-0.548795">
        <ele>42.50108</ele>
        <time>2026-05-24T07:32:20.000Z</time>
      </trkpt>
      <trkpt lat="52.119966" lon="-0.548168">
        <ele>42.307479</ele>
        <time>2026-05-24T07:32:27.000Z</time>
      </trkpt>
      <trkpt lat="52.120297" lon="-0.547542">
        <ele>42.166098</ele>
        <time>2026-05-24T07:32:33.000Z</time>
      </trkpt>
      <trkpt lat="52.121348" lon="-0.545677">
        <ele>41.733216</ele>
        <time>2026-05-24T07:32:50.000Z</time>
      </trkpt>
      <trkpt lat="52.121786" lon="-0.544851">
        <ele>41.47717</ele>
        <time>2026-05-24T07:32:57.000Z</time>
      </trkpt>
      <trkpt lat="52.122122" lon="-0.544401">
        <ele>41.312375</ele>
        <time>2026-05-24T07:33:02.000Z</time>
      </trkpt>
      <trkpt lat="52.122403" lon="-0.5441">
        <ele>41.187786</ele>
        <time>2026-05-24T07:33:06.000Z</time>
      </trkpt>
      <trkpt lat="52.1228" lon="-0.543517">
        <ele>41.267083</ele>
        <time>2026-05-24T07:33:12.000Z</time>
      </trkpt>
      <trkpt lat="52.123019" lon="-0.543265">
        <ele>41.360948</ele>
        <time>2026-05-24T07:33:15.000Z</time>
      </trkpt>
      <trkpt lat="52.123124" lon="-0.543165">
        <ele>41.405748</ele>
        <time>2026-05-24T07:33:16.000Z</time>
      </trkpt>
      <trkpt lat="52.123438" lon="-0.542824">
        <ele>41.541694</ele>
        <time>2026-05-24T07:33:20.000Z</time>
      </trkpt>
      <trkpt lat="52.123686" lon="-0.542531">
        <ele>41.651899</ele>
        <time>2026-05-24T07:33:23.000Z</time>
      </trkpt>
      <trkpt lat="52.123811" lon="-0.542292">
        <ele>41.718076</ele>
        <time>2026-05-24T07:33:25.000Z</time>
      </trkpt>
      <trkpt lat="52.123879" lon="-0.542087">
        <ele>41.7684</ele>
        <time>2026-05-24T07:33:27.000Z</time>
      </trkpt>
      <trkpt lat="52.124051" lon="-0.541389">
        <ele>41.800669</ele>
        <time>2026-05-24T07:33:32.000Z</time>
      </trkpt>
      <trkpt lat="52.124223" lon="-0.540958">
        <ele>41.822344</ele>
        <time>2026-05-24T07:33:36.000Z</time>
      </trkpt>
      <trkpt lat="52.124341" lon="-0.540763">
        <ele>41.834531</ele>
        <time>2026-05-24T07:33:38.000Z</time>
      </trkpt>
      <trkpt lat="52.124528" lon="-0.540566">
        <ele>41.850128</ele>
        <time>2026-05-24T07:33:40.000Z</time>
      </trkpt>
      <trkpt lat="52.124756" lon="-0.540615">
        <ele>41.866593</ele>
        <time>2026-05-24T07:33:43.000Z</time>
      </trkpt>
      <trkpt lat="52.124911" lon="-0.540694">
        <ele>41.878197</ele>
        <time>2026-05-24T07:33:45.000Z</time>
      </trkpt>
      <trkpt lat="52.125162" lon="-0.540901">
        <ele>41.89688</ele>
        <time>2026-05-24T07:33:48.000Z</time>
      </trkpt>
      <trkpt lat="52.125353" lon="-0.540957">
        <ele>41.907304</ele>
        <time>2026-05-24T07:33:50.000Z</time>
      </trkpt>
      <trkpt lat="52.125492" lon="-0.540948">
        <ele>41.914647</ele>
        <time>2026-05-24T07:33:52.000Z</time>
      </trkpt>
      <trkpt lat="52.125573" lon="-0.540882">
        <ele>41.919896</ele>
        <time>2026-05-24T07:33:53.000Z</time>
      </trkpt>
      <trkpt lat="52.125697" lon="-0.540735">
        <ele>41.928354</ele>
        <time>2026-05-24T07:33:55.000Z</time>
      </trkpt>
      <trkpt lat="52.12608" lon="-0.540148">
        <ele>41.957573</ele>
        <time>2026-05-24T07:34:01.000Z</time>
      </trkpt>
      <trkpt lat="52.126158" lon="-0.540062">
        <ele>41.962605</ele>
        <time>2026-05-24T07:34:02.000Z</time>
      </trkpt>
      <trkpt lat="52.126906" lon="-0.539153">
        <ele>42.085911</ele>
        <time>2026-05-24T07:34:12.000Z</time>
      </trkpt>
      <trkpt lat="52.126932" lon="-0.539117">
        <ele>42.093778</ele>
        <time>2026-05-24T07:34:12.000Z</time>
      </trkpt>
      <trkpt lat="52.127384" lon="-0.538535">
        <ele>42.232097</ele>
        <time>2026-05-24T07:34:18.000Z</time>
      </trkpt>
      <trkpt lat="52.128778" lon="-0.536575">
        <ele>42.570396</ele>
        <time>2026-05-24T07:34:38.000Z</time>
      </trkpt>
      <trkpt lat="52.129223" lon="-0.535818">
        <ele>42.656844</ele>
        <time>2026-05-24T07:34:45.000Z</time>
      </trkpt>
      <trkpt lat="52.129907" lon="-0.534596">
        <ele>42.478316</ele>
        <time>2026-05-24T07:34:56.000Z</time>
      </trkpt>
      <trkpt lat="52.130038" lon="-0.534288">
        <ele>42.427574</ele>
        <time>2026-05-24T07:34:59.000Z</time>
      </trkpt>
      <trkpt lat="52.130171" lon="-0.533939">
        <ele>42.372306</ele>
        <time>2026-05-24T07:35:02.000Z</time>
      </trkpt>
      <trkpt lat="52.13035" lon="-0.533316">
        <ele>42.277667</ele>
        <time>2026-05-24T07:35:07.000Z</time>
      </trkpt>
      <trkpt lat="52.130457" lon="-0.532499">
        <ele>41.766697</ele>
        <time>2026-05-24T07:35:13.000Z</time>
      </trkpt>
      <trkpt lat="52.13052" lon="-0.531119">
        <ele>40.902984</ele>
        <time>2026-05-24T07:35:22.000Z</time>
      </trkpt>
      <trkpt lat="52.130623" lon="-0.530517">
        <ele>40.521098</ele>
        <time>2026-05-24T07:35:26.000Z</time>
      </trkpt>
      <trkpt lat="52.130787" lon="-0.529727">
        <ele>40.705484</ele>
        <time>2026-05-24T07:35:32.000Z</time>
      </trkpt>
      <trkpt lat="52.131085" lon="-0.528691">
        <ele>41.100113</ele>
        <time>2026-05-24T07:35:40.000Z</time>
      </trkpt>
      <trkpt lat="52.131182" lon="-0.528621">
        <ele>41.15918</ele>
        <time>2026-05-24T07:35:41.000Z</time>
      </trkpt>
      <trkpt lat="52.13128" lon="-0.528592">
        <ele>41.22443</ele>
        <time>2026-05-24T07:35:42.000Z</time>
      </trkpt>
      <trkpt lat="52.1314" lon="-0.528748">
        <ele>41.301184</ele>
        <time>2026-05-24T07:35:44.000Z</time>
      </trkpt>
      <trkpt lat="52.131668" lon="-0.528996">
        <ele>41.503882</ele>
        <time>2026-05-24T07:35:47.000Z</time>
      </trkpt>
      <trkpt lat="52.131894" lon="-0.529169">
        <ele>41.797463</ele>
        <time>2026-05-24T07:35:50.000Z</time>
      </trkpt>
      <trkpt lat="52.13215" lon="-0.529263">
        <ele>42.091535</ele>
        <time>2026-05-24T07:35:53.000Z</time>
      </trkpt>
      <trkpt lat="52.132398" lon="-0.529247">
        <ele>42.388208</ele>
        <time>2026-05-24T07:35:56.000Z</time>
      </trkpt>
      <trkpt lat="52.132842" lon="-0.528985">
        <ele>42.930764</ele>
        <time>2026-05-24T07:36:01.000Z</time>
      </trkpt>
      <trkpt lat="52.133017" lon="-0.52888">
        <ele>43.155066</ele>
        <time>2026-05-24T07:36:03.000Z</time>
      </trkpt>
      <trkpt lat="52.133302" lon="-0.528729">
        <ele>43.495932</ele>
        <time>2026-05-24T07:36:06.000Z</time>
      </trkpt>
      <trkpt lat="52.133477" lon="-0.528658">
        <ele>43.334688</ele>
        <time>2026-05-24T07:36:08.000Z</time>
      </trkpt>
      <trkpt lat="52.133814" lon="-0.528676">
        <ele>42.704449</ele>
        <time>2026-05-24T07:36:12.000Z</time>
      </trkpt>
      <trkpt lat="52.13427" lon="-0.528769">
        <ele>41.874542</ele>
        <time>2026-05-24T07:36:17.000Z</time>
      </trkpt>
      <trkpt lat="52.134562" lon="-0.528808">
        <ele>41.368193</ele>
        <time>2026-05-24T07:36:20.000Z</time>
      </trkpt>
      <trkpt lat="52.134752" lon="-0.528785">
        <ele>41.028221</ele>
        <time>2026-05-24T07:36:22.000Z</time>
      </trkpt>
      <trkpt lat="52.135273" lon="-0.528619">
        <ele>40.215721</ele>
        <time>2026-05-24T07:36:28.000Z</time>
      </trkpt>
      <trkpt lat="52.135709" lon="-0.528545">
        <ele>39.93084</ele>
        <time>2026-05-24T07:36:33.000Z</time>
      </trkpt>
      <trkpt lat="52.137458" lon="-0.528529">
        <ele>38.102812</ele>
        <time>2026-05-24T07:36:52.000Z</time>
      </trkpt>
      <trkpt lat="52.13759" lon="-0.528476">
        <ele>37.822462</ele>
        <time>2026-05-24T07:36:54.000Z</time>
      </trkpt>
      <trkpt lat="52.137884" lon="-0.528442">
        <ele>37.247487</ele>
        <time>2026-05-24T07:36:57.000Z</time>
      </trkpt>
      <trkpt lat="52.138168" lon="-0.528368">
        <ele>36.676531</ele>
        <time>2026-05-24T07:37:00.000Z</time>
      </trkpt>
      <trkpt lat="52.138346" lon="-0.528281">
        <ele>36.336649</ele>
        <time>2026-05-24T07:37:02.000Z</time>
      </trkpt>
      <trkpt lat="52.138543" lon="-0.52803">
        <ele>35.837565</ele>
        <time>2026-05-24T07:37:05.000Z</time>
      </trkpt>
      <trkpt lat="52.138824" lon="-0.527524">
        <ele>35.072867</ele>
        <time>2026-05-24T07:37:10.000Z</time>
      </trkpt>
      <trkpt lat="52.138995" lon="-0.52726">
        <ele>34.646109</ele>
        <time>2026-05-24T07:37:13.000Z</time>
      </trkpt>
      <trkpt lat="52.139111" lon="-0.527156">
        <ele>34.396394</ele>
        <time>2026-05-24T07:37:14.000Z</time>
      </trkpt>
      <trkpt lat="52.139291" lon="-0.527034">
        <ele>34.050958</ele>
        <time>2026-05-24T07:37:16.000Z</time>
      </trkpt>
      <trkpt lat="52.139635" lon="-0.526936">
        <ele>33.426728</ele>
        <time>2026-05-24T07:37:20.000Z</time>
      </trkpt>
      <trkpt lat="52.139878" lon="-0.526953">
        <ele>32.979462</ele>
        <time>2026-05-24T07:37:23.000Z</time>
      </trkpt>
      <trkpt lat="52.140585" lon="-0.527176">
        <ele>32.618791</ele>
        <time>2026-05-24T07:37:31.000Z</time>
      </trkpt>
      <trkpt lat="52.142745" lon="-0.52758">
        <ele>34.239095</ele>
        <time>2026-05-24T07:37:55.000Z</time>
      </trkpt>
      <trkpt lat="52.143039" lon="-0.527633">
        <ele>34.499172</ele>
        <time>2026-05-24T07:37:58.000Z</time>
      </trkpt>
      <trkpt lat="52.143114" lon="-0.527649">
        <ele>34.569909</ele>
        <time>2026-05-24T07:37:59.000Z</time>
      </trkpt>
      <trkpt lat="52.143737" lon="-0.527778">
        <ele>35.125688</ele>
        <time>2026-05-24T07:38:06.000Z</time>
      </trkpt>
      <trkpt lat="52.143842" lon="-0.527802">
        <ele>35.203648</ele>
        <time>2026-05-24T07:38:07.000Z</time>
      </trkpt>
      <trkpt lat="52.144444" lon="-0.527909">
        <ele>35.613024</ele>
        <time>2026-05-24T07:38:14.000Z</time>
      </trkpt>
      <trkpt lat="52.144538" lon="-0.527896">
        <ele>35.675793</ele>
        <time>2026-05-24T07:38:15.000Z</time>
      </trkpt>
      <trkpt lat="52.144668" lon="-0.527824">
        <ele>35.76286</ele>
        <time>2026-05-24T07:38:17.000Z</time>
      </trkpt>
      <trkpt lat="52.144728" lon="-0.52777">
        <ele>35.807715</ele>
        <time>2026-05-24T07:38:18.000Z</time>
      </trkpt>
      <trkpt lat="52.144867" lon="-0.527696">
        <ele>35.902384</ele>
        <time>2026-05-24T07:38:20.000Z</time>
      </trkpt>
      <trkpt lat="52.144977" lon="-0.527696">
        <ele>35.981667</ele>
        <time>2026-05-24T07:38:21.000Z</time>
      </trkpt>
      <trkpt lat="52.145044" lon="-0.528353">
        <ele>36.250991</ele>
        <time>2026-05-24T07:38:26.000Z</time>
      </trkpt>
      <trkpt lat="52.145058" lon="-0.528832">
        <ele>36.490334</ele>
        <time>2026-05-24T07:38:29.000Z</time>
      </trkpt>
      <trkpt lat="52.145049" lon="-0.529082">
        <ele>36.637999</ele>
        <time>2026-05-24T07:38:31.000Z</time>
      </trkpt>
      <trkpt lat="52.144957" lon="-0.52992">
        <ele>37.145607</ele>
        <time>2026-05-24T07:38:37.000Z</time>
      </trkpt>
      <trkpt lat="52.144859" lon="-0.530407">
        <ele>37.454338</ele>
        <time>2026-05-24T07:38:40.000Z</time>
      </trkpt>
      <trkpt lat="52.144699" lon="-0.530953">
        <ele>37.817416</ele>
        <time>2026-05-24T07:38:44.000Z</time>
      </trkpt>
      <trkpt lat="52.144455" lon="-0.531801">
        <ele>38.315336</ele>
        <time>2026-05-24T07:38:50.000Z</time>
      </trkpt>
      <trkpt lat="52.144336" lon="-0.532338">
        <ele>38.576111</ele>
        <time>2026-05-24T07:38:54.000Z</time>
      </trkpt>
      <trkpt lat="52.144245" lon="-0.532993">
        <ele>38.881698</ele>
        <time>2026-05-24T07:38:59.000Z</time>
      </trkpt>
      <trkpt lat="52.144037" lon="-0.535036">
        <ele>39.577282</ele>
        <time>2026-05-24T07:39:13.000Z</time>
      </trkpt>
      <trkpt lat="52.143993" lon="-0.535499">
        <ele>39.645281</ele>
        <time>2026-05-24T07:39:16.000Z</time>
      </trkpt>
      <trkpt lat="52.144012" lon="-0.535709">
        <ele>39.676255</ele>
        <time>2026-05-24T07:39:17.000Z</time>
      </trkpt>
      <trkpt lat="52.144052" lon="-0.535871">
        <ele>39.700736</ele>
        <time>2026-05-24T07:39:18.000Z</time>
      </trkpt>
      <trkpt lat="52.14389" lon="-0.535958">
        <ele>39.73875</ele>
        <time>2026-05-24T07:39:20.000Z</time>
      </trkpt>
      <trkpt lat="52.14377" lon="-0.5366">
        <ele>39.835391</ele>
        <time>2026-05-24T07:39:25.000Z</time>
      </trkpt>
      <trkpt lat="52.143638" lon="-0.537097">
        <ele>39.761991</ele>
        <time>2026-05-24T07:39:29.000Z</time>
      </trkpt>
      <trkpt lat="52.143485" lon="-0.53743">
        <ele>39.526873</ele>
        <time>2026-05-24T07:39:32.000Z</time>
      </trkpt>
      <trkpt lat="52.142969" lon="-0.538206">
        <ele>38.861543</ele>
        <time>2026-05-24T07:39:40.000Z</time>
      </trkpt>
      <trkpt lat="52.142557" lon="-0.538884">
        <ele>38.314062</ele>
        <time>2026-05-24T07:39:47.000Z</time>
      </trkpt>
      <trkpt lat="52.142375" lon="-0.539334">
        <ele>38.076427</ele>
        <time>2026-05-24T07:39:51.000Z</time>
      </trkpt>
      <trkpt lat="52.142258" lon="-0.5397">
        <ele>37.932971</ele>
        <time>2026-05-24T07:39:54.000Z</time>
      </trkpt>
      <trkpt lat="52.142187" lon="-0.539995">
        <ele>37.82205</ele>
        <time>2026-05-24T07:39:56.000Z</time>
      </trkpt>
      <trkpt lat="52.142103" lon="-0.540302">
        <ele>37.706713</ele>
        <time>2026-05-24T07:39:58.000Z</time>
      </trkpt>
      <trkpt lat="52.142072" lon="-0.540409">
        <ele>37.664838</ele>
        <time>2026-05-24T07:39:59.000Z</time>
      </trkpt>
      <trkpt lat="52.141991" lon="-0.540722">
        <ele>37.545611</ele>
        <time>2026-05-24T07:40:01.000Z</time>
      </trkpt>
      <trkpt lat="52.141936" lon="-0.540906">
        <ele>37.472526</ele>
        <time>2026-05-24T07:40:02.000Z</time>
      </trkpt>
      <trkpt lat="52.141797" lon="-0.54137">
        <ele>37.286958</ele>
        <time>2026-05-24T07:40:06.000Z</time>
      </trkpt>
      <trkpt lat="52.141365" lon="-0.542615">
        <ele>38.355878</ele>
        <time>2026-05-24T07:40:16.000Z</time>
      </trkpt>
      <trkpt lat="52.140903" lon="-0.544536">
        <ele>40.651557</ele>
        <time>2026-05-24T07:40:30.000Z</time>
      </trkpt>
      <trkpt lat="52.140812" lon="-0.544984">
        <ele>41.215511</ele>
        <time>2026-05-24T07:40:33.000Z</time>
      </trkpt>
      <trkpt lat="52.140777" lon="-0.544975">
        <ele>41.318201</ele>
        <time>2026-05-24T07:40:33.000Z</time>
      </trkpt>
      <trkpt lat="52.140672" lon="-0.54508">
        <ele>41.522397</ele>
        <time>2026-05-24T07:40:34.000Z</time>
      </trkpt>
      <trkpt lat="52.140667" lon="-0.545175">
        <ele>41.640287</ele>
        <time>2026-05-24T07:40:35.000Z</time>
      </trkpt>
      <trkpt lat="52.140694" lon="-0.545289">
        <ele>41.774934</ele>
        <time>2026-05-24T07:40:36.000Z</time>
      </trkpt>
      <trkpt lat="52.140764" lon="-0.545337">
        <ele>41.913519</ele>
        <time>2026-05-24T07:40:37.000Z</time>
      </trkpt>
      <trkpt lat="52.140567" lon="-0.546526">
        <ele>43.362638</ele>
        <time>2026-05-24T07:40:45.000Z</time>
      </trkpt>
      <trkpt lat="52.140452" lon="-0.546995">
        <ele>43.880081</ele>
        <time>2026-05-24T07:40:48.000Z</time>
      </trkpt>
      <trkpt lat="52.140351" lon="-0.547307">
        <ele>43.96339</ele>
        <time>2026-05-24T07:40:50.000Z</time>
      </trkpt>
      <trkpt lat="52.140027" lon="-0.548205">
        <ele>44.216275</ele>
        <time>2026-05-24T07:40:57.000Z</time>
      </trkpt>
      <trkpt lat="52.139709" lon="-0.54885">
        <ele>44.408953</ele>
        <time>2026-05-24T07:41:03.000Z</time>
      </trkpt>
      <trkpt lat="52.139445" lon="-0.549346">
        <ele>44.555133</ele>
        <time>2026-05-24T07:41:07.000Z</time>
      </trkpt>
      <trkpt lat="52.139171" lon="-0.549778">
        <ele>44.287463</ele>
        <time>2026-05-24T07:41:11.000Z</time>
      </trkpt>
      <trkpt lat="52.139174" lon="-0.549781">
        <ele>44.286635</ele>
        <time>2026-05-24T07:41:11.000Z</time>
      </trkpt>
      <trkpt lat="52.137396" lon="-0.552318">
        <ele>42.772402</ele>
        <time>2026-05-24T07:41:37.000Z</time>
      </trkpt>
      <trkpt lat="52.137115" lon="-0.552665">
        <ele>42.577309</ele>
        <time>2026-05-24T07:41:41.000Z</time>
      </trkpt>
      <trkpt lat="52.135196" lon="-0.555131">
        <ele>42.082949</ele>
        <time>2026-05-24T07:42:08.000Z</time>
      </trkpt>
      <trkpt lat="52.134507" lon="-0.556027">
        <ele>42.354939</ele>
        <time>2026-05-24T07:42:18.000Z</time>
      </trkpt>
      <trkpt lat="52.132586" lon="-0.558264">
        <ele>43.230101</ele>
        <time>2026-05-24T07:42:44.000Z</time>
      </trkpt>
      <trkpt lat="52.13073" lon="-0.56037">
        <ele>44.530726</ele>
        <time>2026-05-24T07:43:09.000Z</time>
      </trkpt>
      <trkpt lat="52.130216" lon="-0.560966">
        <ele>45.225035</ele>
        <time>2026-05-24T07:43:16.000Z</time>
      </trkpt>
      <trkpt lat="52.129877" lon="-0.561448">
        <ele>45.734183</ele>
        <time>2026-05-24T07:43:21.000Z</time>
      </trkpt>
      <trkpt lat="52.129796" lon="-0.561579">
        <ele>45.868733</ele>
        <time>2026-05-24T07:43:22.000Z</time>
      </trkpt>
      <trkpt lat="52.129489" lon="-0.562121">
        <ele>46.532333</ele>
        <time>2026-05-24T07:43:27.000Z</time>
      </trkpt>
      <trkpt lat="52.129096" lon="-0.562888">
        <ele>47.974625</ele>
        <time>2026-05-24T07:43:34.000Z</time>
      </trkpt>
      <trkpt lat="52.128837" lon="-0.563554">
        <ele>49.138041</ele>
        <time>2026-05-24T07:43:39.000Z</time>
      </trkpt>
      <trkpt lat="52.128739" lon="-0.563813">
        <ele>49.588047</ele>
        <time>2026-05-24T07:43:41.000Z</time>
      </trkpt>
      <trkpt lat="52.128489" lon="-0.564582">
        <ele>50.989433</ele>
        <time>2026-05-24T07:43:47.000Z</time>
      </trkpt>
      <trkpt lat="52.127617" lon="-0.567613">
        <ele>57.521677</ele>
        <time>2026-05-24T07:44:10.000Z</time>
      </trkpt>
      <trkpt lat="52.127526" lon="-0.567909">
        <ele>58.094718</ele>
        <time>2026-05-24T07:44:12.000Z</time>
      </trkpt>
      <trkpt lat="52.126953" lon="-0.569846">
        <ele>61.64676</ele>
        <time>2026-05-24T07:44:27.000Z</time>
      </trkpt>
      <trkpt lat="52.125733" lon="-0.573679">
        <ele>64.923454</ele>
        <time>2026-05-24T07:44:56.000Z</time>
      </trkpt>
      <trkpt lat="52.125615" lon="-0.574067">
        <ele>64.972176</ele>
        <time>2026-05-24T07:44:59.000Z</time>
      </trkpt>
      <trkpt lat="52.125492" lon="-0.574423">
        <ele>65.015554</ele>
        <time>2026-05-24T07:45:02.000Z</time>
      </trkpt>
      <trkpt lat="52.122046" lon="-0.570438">
        <ele>53.761568</ele>
        <time>2026-05-24T07:45:49.000Z</time>
      </trkpt>
      <trkpt lat="52.121808" lon="-0.569963">
        <ele>53.296284</ele>
        <time>2026-05-24T07:45:53.000Z</time>
      </trkpt>
      <trkpt lat="52.121609" lon="-0.569466">
        <ele>52.851258</ele>
        <time>2026-05-24T07:45:57.000Z</time>
      </trkpt>
      <trkpt lat="52.121437" lon="-0.569075">
        <ele>52.491922</ele>
        <time>2026-05-24T07:46:00.000Z</time>
      </trkpt>
      <trkpt lat="52.121245" lon="-0.568579">
        <ele>52.043107</ele>
        <time>2026-05-24T07:46:04.000Z</time>
      </trkpt>
      <trkpt lat="52.120314" lon="-0.566007">
        <ele>56.38003</ele>
        <time>2026-05-24T07:46:24.000Z</time>
      </trkpt>
      <trkpt lat="52.119279" lon="-0.563372">
        <ele>62.917516</ele>
        <time>2026-05-24T07:46:45.000Z</time>
      </trkpt>
      <trkpt lat="52.119068" lon="-0.56288">
        <ele>62.06754</ele>
        <time>2026-05-24T07:46:49.000Z</time>
      </trkpt>
      <trkpt lat="52.118459" lon="-0.561713">
        <ele>59.914713</ele>
        <time>2026-05-24T07:46:59.000Z</time>
      </trkpt>
      <trkpt lat="52.117099" lon="-0.558485">
        <ele>50.696646</ele>
        <time>2026-05-24T07:47:26.000Z</time>
      </trkpt>
      <trkpt lat="52.116824" lon="-0.557945">
        <ele>49.738897</ele>
        <time>2026-05-24T07:47:31.000Z</time>
      </trkpt>
      <trkpt lat="52.115766" lon="-0.554809">
        <ele>46.203137</ele>
        <time>2026-05-24T07:47:55.000Z</time>
      </trkpt>
      <trkpt lat="52.115705" lon="-0.554557">
        <ele>46.054896</ele>
        <time>2026-05-24T07:47:57.000Z</time>
      </trkpt>
      <trkpt lat="52.115713" lon="-0.554426">
        <ele>45.977444</ele>
        <time>2026-05-24T07:47:58.000Z</time>
      </trkpt>
      <trkpt lat="52.115743" lon="-0.554301">
        <ele>45.896113</ele>
        <time>2026-05-24T07:47:59.000Z</time>
      </trkpt>
      <trkpt lat="52.116817" lon="-0.55309">
        <ele>44.952895</ele>
        <time>2026-05-24T07:48:14.000Z</time>
      </trkpt>
      <trkpt lat="52.117136" lon="-0.552665">
        <ele>44.690356</ele>
        <time>2026-05-24T07:48:19.000Z</time>
      </trkpt>
      <trkpt lat="52.118656" lon="-0.550309">
        <ele>42.983497</ele>
        <time>2026-05-24T07:48:42.000Z</time>
      </trkpt>
      <trkpt lat="52.119478" lon="-0.548807">
        <ele>42.49649</ele>
        <time>2026-05-24T07:48:56.000Z</time>
      </trkpt>
      <trkpt lat="52.11995" lon="-0.548174">
        <ele>42.323877</ele>
        <time>2026-05-24T07:49:03.000Z</time>
      </trkpt>
      <trkpt lat="52.120307" lon="-0.54754">
        <ele>42.174127</ele>
        <time>2026-05-24T07:49:09.000Z</time>
      </trkpt>
      <trkpt lat="52.121341" lon="-0.545663">
        <ele>41.723108</ele>
        <time>2026-05-24T07:49:26.000Z</time>
      </trkpt>
      <trkpt lat="52.121798" lon="-0.544851">
        <ele>41.495345</ele>
        <time>2026-05-24T07:49:34.000Z</time>
      </trkpt>
      <trkpt lat="52.122113" lon="-0.54439">
        <ele>41.348762</ele>
        <time>2026-05-24T07:49:39.000Z</time>
      </trkpt>
      <trkpt lat="52.122403" lon="-0.544099">
        <ele>41.237947</ele>
        <time>2026-05-24T07:49:43.000Z</time>
      </trkpt>
      <trkpt lat="52.122799" lon="-0.543518">
        <ele>41.241771</ele>
        <time>2026-05-24T07:49:49.000Z</time>
      </trkpt>
      <trkpt lat="52.123018" lon="-0.543266">
        <ele>41.336206</ele>
        <time>2026-05-24T07:49:52.000Z</time>
      </trkpt>
      <trkpt lat="52.123116" lon="-0.543165">
        <ele>41.381277</ele>
        <time>2026-05-24T07:49:53.000Z</time>
      </trkpt>
      <trkpt lat="52.123439" lon="-0.542827">
        <ele>41.518027</ele>
        <time>2026-05-24T07:49:57.000Z</time>
      </trkpt>
      <trkpt lat="52.123695" lon="-0.542518">
        <ele>41.628896</ele>
        <time>2026-05-24T07:50:01.000Z</time>
      </trkpt>
      <trkpt lat="52.123816" lon="-0.542289">
        <ele>41.695477</ele>
        <time>2026-05-24T07:50:03.000Z</time>
      </trkpt>
      <trkpt lat="52.123879" lon="-0.542089">
        <ele>41.746496</ele>
        <time>2026-05-24T07:50:05.000Z</time>
      </trkpt>
      <trkpt lat="52.124049" lon="-0.541393">
        <ele>41.810365</ele>
        <time>2026-05-24T07:50:10.000Z</time>
      </trkpt>
      <trkpt lat="52.124217" lon="-0.540962">
        <ele>41.830115</ele>
        <time>2026-05-24T07:50:13.000Z</time>
      </trkpt>
      <trkpt lat="52.12434" lon="-0.540778">
        <ele>41.8412</ele>
        <time>2026-05-24T07:50:15.000Z</time>
      </trkpt>
      <trkpt lat="52.124519" lon="-0.540579">
        <ele>41.855416</ele>
        <time>2026-05-24T07:50:17.000Z</time>
      </trkpt>
      <trkpt lat="52.124758" lon="-0.540617">
        <ele>41.870407</ele>
        <time>2026-05-24T07:50:20.000Z</time>
      </trkpt>
      <trkpt lat="52.124927" lon="-0.540697">
        <ele>41.880999</ele>
        <time>2026-05-24T07:50:22.000Z</time>
      </trkpt>
      <trkpt lat="52.125164" lon="-0.5409">
        <ele>41.898633</ele>
        <time>2026-05-24T07:50:25.000Z</time>
      </trkpt>
      <trkpt lat="52.125343" lon="-0.540962">
        <ele>41.910616</ele>
        <time>2026-05-24T07:50:27.000Z</time>
      </trkpt>
      <trkpt lat="52.125489" lon="-0.540947">
        <ele>41.919028</ele>
        <time>2026-05-24T07:50:29.000Z</time>
      </trkpt>
      <trkpt lat="52.125573" lon="-0.54089">
        <ele>41.925031</ele>
        <time>2026-05-24T07:50:30.000Z</time>
      </trkpt>
      <trkpt lat="52.125694" lon="-0.540746">
        <ele>41.934721</ele>
        <time>2026-05-24T07:50:32.000Z</time>
      </trkpt>
      <trkpt lat="52.126076" lon="-0.54015">
        <ele>41.968171</ele>
        <time>2026-05-24T07:50:38.000Z</time>
      </trkpt>
      <trkpt lat="52.126155" lon="-0.540057">
        <ele>41.973938</ele>
        <time>2026-05-24T07:50:39.000Z</time>
      </trkpt>
      <trkpt lat="52.126907" lon="-0.539155">
        <ele>42.079681</ele>
        <time>2026-05-24T07:50:49.000Z</time>
      </trkpt>
      <trkpt lat="52.126935" lon="-0.539128">
        <ele>42.087484</ele>
        <time>2026-05-24T07:50:49.000Z</time>
      </trkpt>
      <trkpt lat="52.127373" lon="-0.538551">
        <ele>42.22474</ele>
        <time>2026-05-24T07:50:55.000Z</time>
      </trkpt>
      <trkpt lat="52.128763" lon="-0.536569">
        <ele>42.568014</ele>
        <time>2026-05-24T07:51:16.000Z</time>
      </trkpt>
      <trkpt lat="52.129216" lon="-0.535829">
        <ele>42.649944</ele>
        <time>2026-05-24T07:51:23.000Z</time>
      </trkpt>
      <trkpt lat="52.129906" lon="-0.534595">
        <ele>42.469505</ele>
        <time>2026-05-24T07:51:34.000Z</time>
      </trkpt>
      <trkpt lat="52.130024" lon="-0.534287">
        <ele>42.406091</ele>
        <time>2026-05-24T07:51:36.000Z</time>
      </trkpt>
      <trkpt lat="52.130169" lon="-0.53393">
        <ele>42.337027</ele>
        <time>2026-05-24T07:51:39.000Z</time>
      </trkpt>
      <trkpt lat="52.130363" lon="-0.533312">
        <ele>42.218752</ele>
        <time>2026-05-24T07:51:44.000Z</time>
      </trkpt>
      <trkpt lat="52.130461" lon="-0.532502">
        <ele>41.746135</ele>
        <time>2026-05-24T07:51:50.000Z</time>
      </trkpt>
      <trkpt lat="52.130523" lon="-0.531111">
        <ele>40.772878</ele>
        <time>2026-05-24T07:52:00.000Z</time>
      </trkpt>
      <trkpt lat="52.130621" lon="-0.530519">
        <ele>40.342562</ele>
        <time>2026-05-24T07:52:04.000Z</time>
      </trkpt>
      <trkpt lat="52.130787" lon="-0.52972">
        <ele>39.529442</ele>
        <time>2026-05-24T07:52:10.000Z</time>
      </trkpt>
      <trkpt lat="52.131083" lon="-0.528685">
        <ele>38.257855</ele>
        <time>2026-05-24T07:52:18.000Z</time>
      </trkpt>
      <trkpt lat="52.131141" lon="-0.528252">
        <ele>37.759912</ele>
        <time>2026-05-24T07:52:21.000Z</time>
      </trkpt>
      <trkpt lat="52.131031" lon="-0.52796">
        <ele>37.39686</ele>
        <time>2026-05-24T07:52:23.000Z</time>
      </trkpt>
      <trkpt lat="52.130935" lon="-0.527766">
        <ele>37.117282</ele>
        <time>2026-05-24T07:52:25.000Z</time>
      </trkpt>
      <trkpt lat="52.130715" lon="-0.527537">
        <ele>36.661846</ele>
        <time>2026-05-24T07:52:28.000Z</time>
      </trkpt>
      <trkpt lat="52.130516" lon="-0.527423">
        <ele>36.28318</ele>
        <time>2026-05-24T07:52:30.000Z</time>
      </trkpt>
      <trkpt lat="52.130018" lon="-0.527246">
        <ele>35.420057</ele>
        <time>2026-05-24T07:52:36.000Z</time>
      </trkpt>
      <trkpt lat="52.129223" lon="-0.527088">
        <ele>34.041489</ele>
        <time>2026-05-24T07:52:45.000Z</time>
      </trkpt>
      <trkpt lat="52.129231" lon="-0.527099">
        <ele>34.037881</ele>
        <time>2026-05-24T07:52:45.000Z</time>
      </trkpt>
      <trkpt lat="52.127469" lon="-0.526355">
        <ele>33.025803</ele>
        <time>2026-05-24T07:53:05.000Z</time>
      </trkpt>
      <trkpt lat="52.126439" lon="-0.525736">
        <ele>33.130476</ele>
        <time>2026-05-24T07:53:17.000Z</time>
      </trkpt>
      <trkpt lat="52.125337" lon="-0.525117">
        <ele>33.18478</ele>
        <time>2026-05-24T07:53:30.000Z</time>
      </trkpt>
      <trkpt lat="52.1243" lon="-0.524337">
        <ele>32.869966</ele>
        <time>2026-05-24T07:53:43.000Z</time>
      </trkpt>
      <trkpt lat="52.12387" lon="-0.524064">
        <ele>32.7533511903</ele>
        <time>2026-05-24T07:53:48.000Z</time>
      </trkpt>
      <trkpt lat="52.123504" lon="-0.523905">
        <ele>32.6576372335</ele>
        <time>2026-05-24T07:53:52.000Z</time>
      </trkpt>
      <trkpt lat="52.12305" lon="-0.523773">
        <ele>32.5411070041</ele>
        <time>2026-05-24T07:53:57.000Z</time>
      </trkpt>
      <trkpt lat="52.122092" lon="-0.523315">
        <ele>32.2888266862</ele>
        <time>2026-05-24T07:54:08.000Z</time>
      </trkpt>
      <trkpt lat="52.121953" lon="-0.523269">
        <ele>32.2529864491</ele>
        <time>2026-05-24T07:54:10.000Z</time>
      </trkpt>
    </trkseg>
  </trk>
</gpx>

<!--
Performance optimized by W3 Total Cache. Learn more: https://www.boldgrid.com/w3-total-cache/?utm_source=w3tc&utm_medium=footer_comment&utm_campaign=free_plugin

Page Caching using Disk: Enhanced{w3tc_pagecache_reject_reason} 

Served from: www.aquabike.world @ 2026-05-10 17:31:13 by W3 Total Cache
-->